Time;durP1;ratioP1;P1;durP2;ratioP2;P2;SDS_P1;SDS_P2;PMS_P1;PMS_P2;Temp;Humidity;BMP_temperature;BMP_pressure;BME280_temperature;BME280_humidity;BME280_pressure;Samples;Min_cycle;Max_cycle;Signal;HPM_P1;HPM_P2
2022/04/06 00:01:29;;;;;;;6.10;5.50;;;;;;;14.85;53.14;98147.66;7028801;28;20707;-75
2022/04/06 00:04:51;;;;;;;5.83;4.67;;;;;;;14.93;52.87;98136.41;7028811;28;20561;-75
2022/04/06 00:08:13;;;;;;;5.57;5.10;;;;;;;14.83;53.38;98141.69;7029397;28;20234;-75
2022/04/06 00:11:34;;;;;;;5.03;4.53;;;;;;;14.79;53.36;98137.81;7030060;28;20205;-75
2022/04/06 00:14:57;;;;;;;5.20;4.70;;;;;;;14.83;53.35;98133.53;7029693;28;20210;-75
2022/04/06 00:18:19;;;;;;;6.90;4.77;;;;;;;14.92;52.66;98134.78;7030580;28;20268;-75
2022/04/06 00:21:40;;;;;;;5.90;5.30;;;;;;;14.85;52.64;98117.81;7031078;28;20880;-75
2022/04/06 00:25:02;;;;;;;5.97;5.33;;;;;;;14.70;53.27;98104.03;7029917;28;20297;-75
2022/04/06 00:28:23;;;;;;;6.77;4.97;;;;;;;15.15;52.21;98112.84;7029313;28;20667;-75
2022/04/06 00:31:46;;;;;;;5.73;5.23;;;;;;;15.02;52.61;98111.31;7029867;28;20263;-75
2022/04/06 00:38:48;;;;;;;5.90;5.23;;;;;;;14.80;53.31;98115.84;7028778;28;20225;-75
2022/04/06 00:42:09;;;;;;;5.30;4.80;;;;;;;14.84;53.49;98108.03;7028902;28;20263;-75
2022/04/06 00:45:31;;;;;;;6.63;4.80;;;;;;;14.65;53.91;98107.50;7003111;28;20566;-75
2022/04/06 00:48:54;;;;;;;6.07;5.13;;;;;;;14.76;53.22;98090.28;7000812;28;20359;-75
2022/04/06 00:52:16;;;;;;;5.50;5.00;;;;;;;14.78;53.30;98101.72;7001692;28;20210;-75
2022/04/06 00:55:39;;;;;;;6.40;5.00;;;;;;;14.64;53.95;98089.56;7001407;28;20812;-75
2022/04/06 00:59:00;;;;;;;5.47;4.97;;;;;;;14.79;53.46;98097.09;7001600;28;20239;-75
2022/04/06 01:02:24;;;;;;;5.50;4.80;;;;;;;14.78;53.92;98099.00;6999763;28;20267;-76
2022/04/06 01:05:48;;;;;;;5.10;4.50;;;;;;;14.83;53.40;98081.97;7000355;28;20182;-76
2022/04/06 01:09:09;;;;;;;5.07;4.57;;;;;;;15.07;52.70;98086.13;7000662;28;20238;-75
2022/04/06 01:12:33;;;;;;;5.23;4.83;;;;;;;14.82;53.41;98085.75;7001864;28;20205;-75
2022/04/06 01:15:54;;;;;;;5.70;5.20;;;;;;;14.84;53.39;98078.19;7001867;28;20656;-76
2022/04/06 01:19:16;;;;;;;5.27;4.83;;;;;;;15.19;52.35;98074.06;7006946;28;20367;-75
2022/04/06 01:22:39;;;;;;;8.70;4.70;;;;;;;15.15;52.42;98077.56;7026979;28;20261;-75
2022/04/06 01:26:01;;;;;;;7.97;6.20;;;;;;;15.05;52.78;98078.22;7034215;28;20218;-75
2022/04/06 01:29:22;;;;;;;6.23;5.63;;;;;;;15.01;52.58;98065.41;7034084;28;20726;-76
2022/04/06 01:32:44;;;;;;;5.40;4.90;;;;;;;14.55;53.96;98077.50;7034324;28;20338;-75
2022/04/06 01:36:05;;;;;;;5.57;5.07;;;;;;;14.42;54.29;98058.84;7033235;28;20204;-75
2022/04/06 01:39:28;;;;;;;6.17;5.50;;;;;;;14.69;54.10;98073.34;7033890;28;20569;-75
2022/04/06 01:42:50;;;;;;;5.03;4.50;;;;;;;14.82;53.27;98059.44;7033975;28;20292;-75
2022/04/06 01:46:11;;;;;;;5.23;4.73;;;;;;;14.94;53.30;98078.34;7033263;28;20330;-76
2022/04/06 01:53:12;;;;;;;5.07;4.60;;;;;;;14.85;53.56;98075.22;7033367;28;20263;-75
2022/04/06 01:56:35;;;;;;;6.23;4.90;;;;;;;14.67;54.09;98055.69;7032635;28;20229;-76
2022/04/06 01:59:57;;;;;;;5.50;5.00;;;;;;;14.95;53.06;98064.53;7033497;28;20718;-75
2022/04/06 02:03:19;;;;;;;5.10;4.70;;;;;;;14.84;53.17;98048.34;7031740;28;20261;-75
2022/04/06 02:06:41;;;;;;;5.80;5.10;;;;;;;14.75;53.96;98058.00;7032326;28;20260;-75
2022/04/06 02:10:02;;;;;;;6.77;5.13;;;;;;;14.45;54.61;98044.78;7033001;28;20226;-75
2022/04/06 02:13:26;;;;;;;4.93;4.53;;;;;;;14.92;53.52;98054.16;7033086;28;20244;-75
2022/04/06 02:16:47;;;;;;;4.80;4.33;;;;;;;14.58;54.16;98051.75;7032632;28;20290;-75
2022/04/06 02:20:10;;;;;;;5.77;4.83;;;;;;;14.96;53.38;98049.03;7032649;28;20260;-75
2022/04/06 02:23:31;;;;;;;5.80;4.80;;;;;;;14.70;53.77;98049.78;7032580;28;20716;-76
2022/04/06 02:26:53;;;;;;;5.20;4.77;;;;;;;14.84;53.52;98049.16;7032249;28;20221;-75
2022/04/06 02:30:16;;;;;;;4.90;4.40;;;;;;;14.56;53.83;98046.56;7031591;28;20383;-76
2022/04/06 02:33:38;;;;;;;5.57;4.40;;;;;;;14.21;54.84;98024.34;7033022;28;20725;-75
2022/04/06 02:36:59;;;;;;;5.90;4.80;;;;;;;14.52;54.55;98055.47;7032170;28;20290;-75
2022/04/06 02:40:21;;;;;;;5.33;4.93;;;;;;;14.17;55.15;98050.25;7031880;28;20388;-75
2022/04/06 02:43:43;;;;;;;6.23;5.17;;;;;;;14.70;54.40;98033.50;7019044;28;20224;-75
2022/04/06 02:47:06;;;;;;;6.50;5.23;;;;;;;14.56;54.00;98041.16;7003600;28;20212;-75
2022/04/06 02:50:28;;;;;;;6.23;5.63;;;;;;;14.65;54.03;98047.81;7003910;28;20225;-75
2022/04/06 02:53:49;;;;;;;6.23;5.63;;;;;;;15.04;53.17;98038.56;7004360;28;20285;-75
2022/04/06 02:57:11;;;;;;;6.17;5.57;;;;;;;14.93;53.17;98030.56;7003702;28;20287;-75
2022/04/06 03:00:32;;;;;;;6.80;6.20;;;;;;;14.51;54.15;98032.13;7004018;28;20317;-75
2022/04/06 03:03:55;;;;;;;6.43;5.73;;;;;;;14.59;54.26;98028.97;7002223;28;20231;-75
2022/04/06 03:07:20;;;;;;;7.13;5.93;;;;;;;14.89;53.21;98019.38;7003147;28;20215;-75
2022/04/06 03:10:42;;;;;;;6.33;5.47;;;;;;;15.02;53.28;98019.00;7003127;28;20360;-75
2022/04/06 03:14:04;;;;;;;6.90;5.93;;;;;;;15.36;51.87;98025.16;7003181;28;20205;-75
2022/04/06 03:17:26;;;;;;;6.23;5.63;;;;;;;15.14;52.55;98013.44;7002556;28;20288;-75
2022/04/06 03:20:49;;;;;;;6.57;5.97;;;;;;;15.05;52.70;98012.25;7002691;28;20228;-76
2022/04/06 03:24:10;;;;;;;7.23;5.60;;;;;;;14.82;53.45;98016.00;7003000;28;20234;-75
2022/04/06 03:27:32;;;;;;;6.40;5.80;;;;;;;15.19;52.08;97970.88;7002391;28;20292;-75
2022/04/06 03:30:53;;;;;;;7.30;5.87;;;;;;;15.41;51.87;97989.91;7002677;28;20240;-75
2022/04/06 03:34:15;;;;;;;5.10;4.70;;;;;;;15.46;51.44;97990.75;7003040;28;20296;-75
2022/04/06 03:37:38;;;;;;;6.73;5.20;;;;;;;14.56;54.13;98002.34;7002214;28;20209;-75
2022/04/06 03:40:59;;;;;;;5.97;5.37;;;;;;;15.44;51.86;97992.91;7002883;28;20224;-75
2022/04/06 03:44:21;;;;;;;6.53;5.40;;;;;;;15.33;52.04;97993.88;7002380;28;20242;-75
2022/04/06 03:47:45;;;;;;;6.80;5.87;;;;;;;15.25;52.10;97988.03;7001822;28;20206;-75
2022/04/06 03:51:06;;;;;;;6.93;6.17;;;;;;;15.27;52.20;97977.78;7002159;28;20257;-75
2022/04/06 03:54:29;;;;;;;6.80;5.93;;;;;;;15.52;51.58;97970.72;7002205;28;20230;-75
2022/04/06 03:57:51;;;;;;;9.07;7.43;;;;;;;15.47;51.26;97984.28;7002056;28;20304;-76
2022/04/06 04:01:12;;;;;;;7.40;6.43;;;;;;;15.32;52.29;97978.66;7000604;28;20201;-76
2022/04/06 04:04:34;;;;;;;7.03;6.23;;;;;;;15.34;51.96;97967.56;7016466;28;20204;-74
2022/04/06 04:07:55;;;;;;;7.43;6.70;;;;;;;15.03;52.81;97988.06;7028707;28;20237;-75
2022/04/06 04:11:18;;;;;;;7.70;5.70;;;;;;;15.32;52.06;97970.53;7029496;28;20211;-75
2022/04/06 04:14:41;;;;;;;7.27;6.57;;;;;;;15.15;52.48;97977.91;7011179;28;20210;-76
2022/04/06 04:18:02;;;;;;;9.27;6.10;;;;;;;15.22;52.22;97966.84;7005152;28;20261;-76
2022/04/06 04:21:33;;;;;;;7.17;6.47;;;;;;;15.07;52.38;97970.22;7028970;28;20214;-76
2022/04/06 04:24:54;;;;;;;8.37;6.60;;;;;;;14.76;53.42;97980.94;7029084;28;20217;-76
2022/04/06 04:28:17;;;;;;;7.80;6.97;;;;;;;15.26;52.08;97967.97;7027855;28;20285;-76
2022/04/06 04:31:39;;;;;;;8.57;6.13;;;;;;;15.38;51.69;97963.22;7028408;28;20197;-76
2022/04/06 04:35:03;;;;;;;6.60;5.93;;;;;;;15.34;51.56;97971.06;7028150;28;20358;-76
2022/04/06 04:38:25;;;;;;;7.87;6.13;;;;;;;15.32;51.50;97956.06;7027753;28;20229;-75
2022/04/06 04:41:47;;;;;;;7.73;6.30;;;;;;;15.50;51.38;97956.59;7029782;28;20257;-76
2022/04/06 04:45:11;;;;;;;6.90;6.20;;;;;;;15.49;51.38;97956.84;7030416;28;20206;-76
2022/04/06 04:48:32;;;;;;;6.80;6.10;;;;;;;14.90;52.88;97966.75;7030054;28;20312;-76
2022/04/06 04:51:54;;;;;;;7.20;6.37;;;;;;;14.69;53.93;97959.41;7032433;28;20203;-76
2022/04/06 04:55:15;;;;;;;9.83;7.20;;;;;;;15.01;53.18;97967.69;7036065;28;20315;-76
2022/04/06 04:58:37;;;;;;;8.53;7.37;;;;;;;15.35;52.01;97952.91;7036054;28;20311;-77
2022/04/06 05:02:00;;;;;;;7.43;6.67;;;;;;;15.30;52.37;97974.53;7033568;28;20267;-76
2022/04/06 05:05:22;;;;;;;7.13;6.43;;;;;;;15.46;51.95;97962.78;7036410;28;20254;-75
2022/04/06 05:08:43;;;;;;;8.70;6.57;;;;;;;15.41;51.90;97960.03;7021086;28;20233;-75
2022/04/06 05:12:06;;;;;;;7.50;6.63;;;;;;;15.10;52.82;97963.44;7024378;28;20621;-75
2022/04/06 05:15:27;;;;;;;6.70;6.00;;;;;;;15.44;51.98;97959.50;7020092;28;20239;-75
2022/04/06 05:18:50;;;;;;;7.03;6.20;;;;;;;15.63;51.07;97949.94;7028671;28;20228;-76
2022/04/06 05:22:12;;;;;;;9.40;6.67;;;;;;;15.54;51.64;97954.16;7026551;28;20240;-75
2022/04/06 05:25:33;;;;;;;6.53;5.93;;;;;;;15.59;51.42;97960.50;7025923;28;20232;-75
2022/04/06 05:28:55;;;;;;;7.60;6.10;;;;;;;15.56;51.56;97958.28;7034074;28;20373;-75
2022/04/06 05:32:16;;;;;;;7.63;6.20;;;;;;;15.51;51.85;97944.63;7032140;28;20209;-75
2022/04/06 05:35:39;;;;;;;7.23;5.83;;;;;;;15.60;51.74;97959.41;7034959;28;20327;-75
2022/04/06 05:39:01;;;;;;;7.70;6.37;;;;;;;15.61;51.88;97950.19;7034783;28;20218;-75
2022/04/06 05:42:22;;;;;;;7.20;6.27;;;;;;;15.43;52.02;97957.84;7035195;28;20229;-76
2022/04/06 05:45:44;;;;;;;7.40;6.13;;;;;;;15.44;52.43;97956.78;7034503;28;20228;-75
2022/04/06 05:49:06;;;;;;;7.50;5.57;;;;;;;15.56;52.01;97941.13;7035092;28;20278;-75
2022/04/06 05:52:29;;;;;;;6.47;5.83;;;;;;;15.64;51.86;97959.72;7035078;28;20202;-75
2022/04/06 05:55:51;;;;;;;6.63;5.97;;;;;;;15.69;51.39;97949.69;7029151;28;20349;-75
2022/04/06 05:59:12;;;;;;;8.50;6.00;;;;;;;15.69;51.39;97957.84;7005129;28;20693;-75
2022/04/06 06:02:34;;;;;;;7.37;6.67;;;;;;;15.54;52.42;97952.28;7004757;28;20237;-77
2022/04/06 06:05:56;;;;;;;8.70;6.33;;;;;;;15.64;52.58;97955.06;7006497;28;20233;-78
2022/04/06 06:09:19;;;;;;;11.67;7.30;;;;;;;15.89;52.83;97947.16;7006346;28;20304;-76
2022/04/06 06:12:40;;;;;;;6.70;5.90;;;;;;;15.99;51.96;97955.38;7023525;28;20207;-76
2022/04/06 06:16:02;;;;;;;6.93;6.23;;;;;;;16.10;51.26;97946.22;7034033;28;20224;-76
2022/04/06 06:19:24;;;;;;;5.93;5.43;;;;;;;15.79;51.28;97960.66;7034107;28;20229;-76
2022/04/06 06:22:45;;;;;;;8.43;6.23;;;;;;;15.99;51.04;97946.44;7033784;28;20317;-76
2022/04/06 06:26:08;;;;;;;8.30;6.10;;;;;;;16.13;50.73;97948.44;7033422;28;20201;-76
2022/04/06 06:29:30;;;;;;;7.47;6.13;;;;;;;16.06;50.71;97952.47;7037687;28;20226;-77
2022/04/06 06:32:51;;;;;;;6.10;5.60;;;;;;;16.03;51.17;97952.97;7038939;28;20614;-76
2022/04/06 06:36:13;;;;;;;6.03;5.43;;;;;;;15.82;51.76;97940.31;7033236;28;20207;-75
2022/04/06 06:39:35;;;;;;;7.03;5.30;;;;;;;15.68;51.81;97936.38;7034489;28;20229;-77
2022/04/06 06:42:58;;;;;;;5.87;5.37;;;;;;;15.59;51.96;97929.75;7033840;28;20219;-78
2022/04/06 06:46:20;;;;;;;5.67;5.07;;;;;;;15.53;52.16;97949.81;7033512;28;20290;-77
2022/04/06 06:49:46;;;;;;;5.37;4.77;;;;;;;15.79;51.80;97949.78;7033203;28;20224;-77
2022/04/06 06:53:08;;;;;;;6.23;4.60;;;;;;;15.51;52.23;97950.06;7033148;28;20196;-77
2022/04/06 06:56:29;;;;;;;4.83;4.43;;;;;;;15.58;52.74;97939.00;7032213;28;20222;-77
2022/04/06 06:59:52;;;;;;;4.93;4.53;;;;;;;15.72;52.58;97941.03;7034819;28;20363;-81
2022/04/06 07:03:14;;;;;;;5.80;5.30;;;;;;;15.63;52.81;97947.22;7034124;28;20267;-77
2022/04/06 07:06:36;;;;;;;5.00;4.33;;;;;;;15.63;51.60;97907.25;7043453;28;20199;-78
2022/04/06 07:10:00;;;;;;;7.40;4.63;;;;;;;15.79;52.29;97947.06;7035571;28;20234;-78
2022/04/06 07:13:21;;;;;;;5.30;4.63;;;;;;;16.05;51.11;97942.66;7006971;28;20210;-79
2022/04/06 07:16:44;;;;;;;5.53;4.03;;;;;;;15.86;51.79;97934.09;7007223;28;20238;-78
2022/04/06 07:20:07;;;;;;;4.60;4.20;;;;;;;15.89;51.40;97943.63;7006690;28;20221;-79
2022/04/06 07:23:28;;;;;;;4.90;4.17;;;;;;;16.11;51.55;97934.25;7007456;28;20229;-78
2022/04/06 07:26:50;;;;;;;4.07;3.50;;;;;;;16.36;50.08;97922.75;7006331;28;20604;-79
2022/04/06 07:30:13;;;;;;;7.00;4.40;;;;;;;16.31;49.99;97914.53;7006610;28;20235;-79
2022/04/06 07:33:36;;;;;;;3.90;3.13;;;;;;;15.89;50.60;97914.53;7006247;28;20205;-79
2022/04/06 07:36:58;;;;;;;4.30;3.00;;;;;;;16.42;50.03;97911.66;7007155;28;20211;-79
2022/04/06 07:40:21;;;;;;;3.40;3.10;;;;;;;16.02;50.65;97926.84;7007831;28;20235;-80
2022/04/06 07:43:44;;;;;;;2.97;2.67;;;;;;;16.43;49.58;97916.03;7008848;28;20716;-79
2022/04/06 07:47:06;;;;;;;3.90;2.63;;;;;;;16.34;49.35;97914.03;7008551;28;20204;-79
2022/04/06 07:50:29;;;;;;;4.30;3.87;;;;;;;16.42;49.03;97908.94;7023693;28;20237;-79
2022/04/06 07:53:51;;;;;;;6.47;5.57;;;;;;;16.46;49.45;97915.47;7008283;28;20607;-79
2022/04/06 07:57:12;;;;;;;2.67;2.47;;;;;;;16.67;48.30;97905.50;7006936;28;20205;-79
2022/04/06 08:00:34;;;;;;;3.40;3.10;;;;;;;16.61;49.03;97909.28;7007245;28;20790;-79
2022/04/06 08:03:55;;;;;;;2.63;2.30;;;;;;;16.72;47.84;97900.94;7004039;28;20233;-76
2022/04/06 08:07:18;;;;;;;2.97;2.30;;;;;;;16.53;49.28;97920.69;7004067;28;20213;-76
2022/04/06 08:10:40;;;;;;;2.57;2.20;;;;;;;16.68;48.53;97907.97;7020237;28;20216;-77
2022/04/06 08:14:02;;;;;;;2.50;2.30;;;;;;;16.97;48.33;97920.09;7032713;28;20228;-74
2022/04/06 08:17:25;;;;;;;3.67;2.27;;;;;;;16.86;47.90;97917.59;7034001;28;20200;-77
2022/04/06 08:20:47;;;;;;;2.10;1.97;;;;;;;16.48;48.65;97907.91;7033955;28;20231;-79
2022/04/06 08:24:10;;;;;;;2.70;2.50;;;;;;;16.46;49.00;97925.56;7032517;28;20593;-78
2022/04/06 08:27:33;;;;;;;2.57;2.37;;;;;;;16.75;48.01;97905.03;7032071;28;20313;-78
2022/04/06 08:30:54;;;;;;;2.97;2.50;;;;;;;16.64;48.30;97917.75;7031973;28;20209;-80
2022/04/06 08:34:16;;;;;;;2.30;2.10;;;;;;;16.60;48.65;97916.66;7031785;28;20199;-78
2022/04/06 08:37:38;;;;;;;2.20;2.10;;;;;;;16.64;48.02;97897.91;7032038;28;20197;-78
2022/04/06 08:41:01;;;;;;;2.90;2.07;;;;;;;16.75;48.21;97902.31;7032088;28;20227;-78
2022/04/06 08:44:24;;;;;;;2.83;2.53;;;;;;;17.08;47.67;97913.59;7004570;28;20236;-78
2022/04/06 08:47:47;;;;;;;2.33;2.13;;;;;;;16.75;48.48;97902.31;7025275;28;20220;-78
2022/04/06 08:51:09;;;;;;;2.00;1.90;;;;;;;17.38;47.53;97916.41;7024473;28;20201;-78
2022/04/06 08:54:31;;;;;;;2.43;2.20;;;;;;;17.42;46.99;97903.91;7031675;28;20307;-78
2022/04/06 08:57:56;;;;;;;2.40;2.20;;;;;;;18.20;45.51;97900.59;7031249;28;20204;-78
2022/04/06 09:01:18;;;;;;;3.20;2.30;;;;;;;17.33;46.57;97877.41;7031794;28;20738;-78
2022/04/06 09:04:40;;;;;;;2.23;2.03;;;;;;;18.43;44.58;97893.75;7031341;28;20294;-78
2022/04/06 09:08:03;;;;;;;2.63;2.20;;;;;;;18.03;44.82;97881.00;7030924;28;20216;-80
2022/04/06 09:11:26;;;;;;;2.17;2.07;;;;;;;18.76;43.69;97872.06;7031130;28;20215;-77
2022/04/06 09:14:50;;;;;;;2.10;1.90;;;;;;;18.29;43.82;97881.78;7031028;28;20224;-77
2022/04/06 09:18:11;;;;;;;1.93;1.73;;;;;;;17.54;46.29;97899.00;7030700;28;20218;-77
2022/04/06 09:21:39;;;;;;;1.97;1.87;;;;;;;18.45;43.10;97880.69;7031691;28;20216;-78
2022/04/06 09:25:02;;;;;;;2.00;1.90;;;;;;;17.87;44.01;97893.00;7015020;28;20233;-77
2022/04/06 09:28:23;;;;;;;2.10;1.90;;;;;;;19.07;42.34;97883.69;7030719;28;20232;-78
2022/04/06 09:31:48;;;;;;;2.50;1.90;;;;;;;18.97;41.97;97884.56;7030733;28;20662;-78
2022/04/06 09:35:24;;;;;;;2.33;1.93;;;;;;;19.40;41.29;97885.72;7031259;28;20201;-78
2022/04/06 09:38:47;;;;;;;2.70;1.80;;;;;;;19.97;40.26;97872.94;7033202;28;20230;-77
2022/04/06 09:42:09;;;;;;;1.50;1.40;;;;;;;19.33;40.65;97864.16;7036202;28;20296;-76
2022/04/06 09:49:13;;;;;;;2.00;1.80;;;;;;;19.79;40.56;97850.94;7034568;28;20713;-76
2022/04/06 09:52:35;;;;;;;3.00;2.30;;;;;;;19.36;40.13;97852.66;7035273;28;20731;-76
2022/04/06 09:55:57;;;;;;;2.17;1.80;;;;;;;18.34;44.49;97849.03;7034288;28;20221;-79
2022/04/06 09:59:19;;;;;;;2.83;2.10;;;;;;;18.91;44.22;97852.91;7035956;28;20230;-77
2022/04/06 10:02:42;;;;;;;1.93;1.80;;;;;;;19.21;41.67;97862.88;7029834;28;20202;-76
2022/04/06 10:06:06;;;;;;;1.87;1.77;;;;;;;18.27;43.73;97852.03;7019837;28;20310;-76
2022/04/06 10:09:27;;;;;;;2.93;1.87;;;;;;;19.51;39.84;97847.06;7034932;28;20262;-75
2022/04/06 10:12:49;;;;;;;1.60;1.50;;;;;;;19.32;38.66;97827.00;7035193;28;20324;-77
2022/04/06 10:16:13;;;;;;;1.60;1.50;;;;;;;18.94;39.05;97843.31;7034215;28;20225;-75
2022/04/06 10:19:39;;;;;;;2.40;1.20;;;;;;;19.37;38.91;97837.06;7033764;28;20738;-75
2022/04/06 10:23:10;;;;;;;1.63;1.27;;;;;;;19.54;39.49;97832.84;7034860;28;20194;-75
2022/04/06 10:26:39;;;;;;;1.50;1.40;;;;;;;19.48;38.88;97819.47;7035431;28;20193;-76
2022/04/06 10:30:12;;;;;;;1.47;1.37;;;;;;;19.91;37.18;97813.91;7035784;28;20228;-75
2022/04/06 10:33:34;;;;;;;1.37;1.27;;;;;;;19.79;37.75;97809.91;7034384;28;20230;-75
2022/04/06 10:37:07;;;;;;;1.57;1.47;;;;;;;19.88;37.11;97800.00;7033325;28;20207;-75
2022/04/06 10:40:56;;;;;;;1.37;1.27;;;;;;;20.24;36.99;97795.81;7032909;28;20222;-75
2022/04/06 10:44:38;;;;;;;2.67;1.40;;;;;;;20.15;37.50;97790.16;7033432;28;20271;-79
2022/04/06 10:48:10;;;;;;;2.03;1.30;;;;;;;20.23;37.22;97791.44;7026739;28;20207;-77
2022/04/06 10:51:33;;;;;;;1.60;1.50;;;;;;;19.88;37.94;97784.38;7029218;28;20212;-77
2022/04/06 10:54:57;;;;;;;2.70;2.37;;;;;;;19.76;37.40;97791.34;7033990;28;20210;-76
2022/04/06 10:58:23;;;;;;;1.10;1.10;;;;;;;20.01;37.22;97778.25;7032305;28;20225;-76
2022/04/06 11:01:46;;;;;;;1.73;1.40;;;;;;;19.96;37.35;97770.09;7031680;28;20279;-76
2022/04/06 11:05:09;;;;;;;1.33;1.23;;;;;;;20.24;36.60;97772.00;7022299;28;20593;-75
2022/04/06 11:12:30;;;;;;;2.00;1.90;;;;;;;20.30;37.42;97750.84;7032420;28;20663;-76
2022/04/06 11:15:53;;;;;;;1.20;0.83;;;;;;;20.91;35.78;97746.19;7032315;28;20216;-76
2022/04/06 11:19:15;;;;;;;0.83;0.83;;;;;;;21.44;34.50;97746.44;7032878;28;20263;-76
2022/04/06 11:22:38;;;;;;;1.40;1.30;;;;;;;22.12;33.86;97730.91;7033040;28;20750;-76
2022/04/06 11:26:00;;;;;;;0.83;0.83;;;;;;;22.09;33.28;97734.28;7032300;28;20225;-76
2022/04/06 11:29:26;;;;;;;0.90;0.90;;;;;;;21.22;34.39;97720.75;7032046;28;20241;-76
2022/04/06 11:32:53;;;;;;;0.93;0.93;;;;;;;21.46;34.46;97715.94;7031752;28;20187;-76
2022/04/06 11:36:16;;;;;;;0.80;0.80;;;;;;;21.25;34.68;97723.72;7031672;28;20546;-76
2022/04/06 11:39:37;;;;;;;0.90;0.90;;;;;;;21.36;33.35;97703.22;7032627;28;20226;-76
2022/04/06 11:43:02;;;;;;;1.37;1.27;;;;;;;21.84;34.17;97704.56;7024857;28;20642;-76
2022/04/06 11:46:23;;;;;;;1.20;1.10;;;;;;;21.90;33.12;97691.56;7031228;28;20230;-76
2022/04/06 11:49:46;;;;;;;1.50;1.10;;;;;;;20.74;34.38;97705.59;7003739;28;20219;-76
2022/04/06 11:53:12;;;;;;;0.90;0.90;;;;;;;21.25;33.32;97692.75;7027265;28;20794;-76
2022/04/06 11:56:33;;;;;;;1.87;1.00;;;;;;;20.73;34.61;97689.44;7030773;28;20657;-76
2022/04/06 11:59:56;;;;;;;1.40;1.30;;;;;;;20.59;35.05;97685.81;7030260;28;20313;-77
2022/04/06 12:03:28;;;;;;;1.60;1.50;;;;;;;21.02;34.34;97682.72;7017287;28;20564;-76
2022/04/06 12:06:51;;;;;;;1.00;1.00;;;;;;;21.45;32.62;97665.78;7032001;28;20634;-78
2022/04/06 12:10:13;;;;;;;1.57;1.17;;;;;;;21.38;33.43;97656.31;7032135;28;20220;-77
2022/04/06 12:13:36;;;;;;;1.23;1.20;;;;;;;21.36;32.88;97661.31;7031958;28;20665;-76
2022/04/06 12:16:58;;;;;;;1.20;1.10;;;;;;;21.75;33.76;97645.22;7031244;28;20234;-77
2022/04/06 12:20:24;;;;;;;1.60;1.20;;;;;;;21.29;33.67;97658.94;7032164;28;20298;-76
2022/04/06 12:23:48;;;;;;;3.33;1.30;;;;;;;21.57;33.42;97644.16;7031095;28;20223;-76
2022/04/06 12:27:11;;;;;;;5.93;1.27;;;;;;;21.48;33.80;97648.72;7025980;28;20198;-76
2022/04/06 12:30:33;;;;;;;2.70;1.07;;;;;;;21.29;33.96;97627.97;7027692;28;20213;-76
2022/04/06 12:33:55;;;;;;;2.67;1.20;;;;;;;21.20;34.12;97632.53;7029528;28;20288;-76
2022/04/06 12:37:32;;;;;;;1.30;1.20;;;;;;;21.02;33.79;97628.69;7030786;28;20227;-76
2022/04/06 12:41:05;;;;;;;1.87;1.43;;;;;;;21.40;33.95;97627.47;7031095;28;20216;-76
2022/04/06 12:44:27;;;;;;;4.07;1.00;;;;;;;22.60;31.94;97615.94;7031709;28;20671;-77
2022/04/06 12:47:49;;;;;;;0.90;0.80;;;;;;;21.60;33.06;97627.09;7031281;28;20214;-76
2022/04/06 12:51:21;;;;;;;0.80;0.80;;;;;;;21.76;31.33;97622.97;7030741;28;20209;-76
2022/04/06 12:54:44;;;;;;;0.77;0.77;;;;;;;22.11;30.83;97611.25;7032020;28;20207;-78
2022/04/06 12:58:17;;;;;;;0.70;0.70;;;;;;;22.05;31.93;97604.25;7016812;28;20203;-78
2022/04/06 13:01:45;;;;;;;1.10;0.90;;;;;;;22.04;30.82;97579.84;7003688;28;20203;-75
2022/04/06 13:05:23;;;;;;;3.23;1.17;;;;;;;22.40;30.22;97592.47;7003609;28;20302;-77
2022/04/06 13:08:46;;;;;;;1.90;1.00;;;;;;;22.38;30.25;97588.41;6894888;28;20261;-77
2022/04/06 13:12:08;;;;;;;1.03;1.03;;;;;;;22.20;31.16;97584.66;6909759;28;20210;-75
2022/04/06 13:15:32;;;;;;;7.47;1.10;;;;;;;21.88;31.42;97589.50;6922963;28;20215;-75
2022/04/06 13:18:54;;;;;;;1.27;0.90;;;;;;;21.86;30.78;97586.28;6895458;28;20720;-75
2022/04/06 13:22:16;;;;;;;0.90;0.90;;;;;;;22.21;30.39;97583.56;6922445;28;20214;-75
2022/04/06 13:25:42;;;;;;;5.00;0.90;;;;;;;21.62;31.08;97564.53;6922801;28;20314;-75
2022/04/06 13:29:04;;;;;;;1.67;1.03;;;;;;;21.89;31.09;97559.03;6922285;28;20236;-76
2022/04/06 13:32:27;;;;;;;3.97;1.07;;;;;;;21.01;31.88;97568.72;6922374;28;20215;-75
2022/04/06 13:35:50;;;;;;;6.40;0.90;;;;;;;21.73;31.63;97562.41;6922897;28;20310;-76
2022/04/06 13:39:12;;;;;;;4.33;2.43;;;;;;;21.89;31.79;97550.00;6902842;28;20230;-76
2022/04/06 13:42:34;;;;;;;1.30;1.20;;;;;;;21.38;32.00;97535.66;6895209;28;20217;-77
2022/04/06 13:45:55;;;;;;;1.23;1.10;;;;;;;21.11;32.48;97545.81;6966985;28;20248;-76
2022/04/06 13:49:18;;;;;;;3.20;2.20;;;;;;;21.31;32.75;97530.56;7013403;28;20254;-76
2022/04/06 13:52:41;;;;;;;1.70;1.60;;;;;;;21.96;31.98;97542.16;7016540;28;20198;-77
2022/04/06 13:56:03;;;;;;;5.70;1.83;;;;;;;21.41;32.61;97541.34;7007363;28;20206;-77
2022/04/06 13:59:25;;;;;;;2.10;1.30;;;;;;;21.69;31.68;97531.19;7007922;28;20227;-77
2022/04/06 14:02:48;;;;;;;2.07;1.23;;;;;;;21.28;31.94;97536.69;7007624;28;20345;-76
2022/04/06 14:06:11;;;;;;;3.47;1.83;;;;;;;21.18;32.25;97503.97;7006636;28;20229;-77
2022/04/06 14:09:32;;;;;;;4.53;1.40;;;;;;;21.22;31.94;97525.31;7030425;28;20228;-76
2022/04/06 14:12:54;;;;;;;1.10;1.00;;;;;;;21.48;31.85;97527.25;7035858;28;20292;-76
2022/04/06 14:16:16;;;;;;;0.80;0.80;;;;;;;21.84;31.18;97509.72;7034157;28;20215;-76
2022/04/06 14:19:37;;;;;;;0.90;0.90;;;;;;;21.64;31.72;97521.13;7034809;28;20230;-77
2022/04/06 14:23:00;;;;;;;2.20;1.07;;;;;;;21.69;32.91;97517.47;7034923;28;20201;-76
2022/04/06 14:26:22;;;;;;;1.83;1.10;;;;;;;21.80;32.33;97516.97;7033592;28;20238;-76
2022/04/06 14:29:43;;;;;;;0.80;0.80;;;;;;;21.29;33.45;97512.81;7035703;28;20225;-78
2022/04/06 14:33:06;;;;;;;1.17;1.00;;;;;;;21.47;33.18;97504.47;7034794;28;20203;-77
2022/04/06 14:36:27;;;;;;;2.63;1.40;;;;;;;21.87;33.30;97506.38;7033402;28;20242;-77
2022/04/06 14:39:50;;;;;;;3.17;1.13;;;;;;;21.39;33.40;97510.69;7034556;28;20271;-76
2022/04/06 14:43:12;;;;;;;4.43;1.10;;;;;;;21.14;33.75;97505.69;7022092;28;20214;-76
2022/04/06 14:46:33;;;;;;;3.10;1.87;;;;;;;21.39;33.98;97501.63;7029045;28;20290;-76
2022/04/06 14:49:55;;;;;;;2.40;2.20;;;;;;;21.21;34.19;97494.34;7020021;28;20773;-76
2022/04/06 14:53:17;;;;;;;11.20;3.27;;;;;;;21.47;33.79;97492.69;7026818;28;20320;-76
2022/04/06 14:56:40;;;;;;;4.30;2.40;;;;;;;21.07;33.71;97511.88;7018402;28;20200;-76
2022/04/06 15:00:03;;;;;;;4.23;2.20;;;;;;;21.76;32.45;97499.50;7011399;28;20222;-76
2022/04/06 15:03:25;;;;;;;1.20;1.10;;;;;;;21.63;32.25;97500.31;7004816;28;20563;-76
2022/04/06 15:06:46;;;;;;;3.20;1.10;;;;;;;21.47;32.53;97499.00;7025373;28;20339;-77
2022/04/06 15:10:08;;;;;;;0.83;0.83;;;;;;;21.65;32.45;97489.03;7033951;28;20248;-77
2022/04/06 15:13:31;;;;;;;1.07;0.93;;;;;;;21.35;32.91;97495.13;7032853;28;20689;-76
2022/04/06 15:16:54;;;;;;;2.93;1.00;;;;;;;20.64;34.44;97489.34;7033379;28;20672;-76
2022/04/06 15:20:17;;;;;;;1.57;1.47;;;;;;;20.91;34.09;97494.94;7033334;28;20228;-77
2022/04/06 15:23:39;;;;;;;1.20;1.00;;;;;;;20.67;34.53;97485.19;7033288;28;20212;-76
2022/04/06 15:27:00;;;;;;;1.00;1.00;;;;;;;20.85;35.16;97479.66;7032830;28;20717;-77
2022/04/06 15:30:23;;;;;;;3.90;1.30;;;;;;;21.01;34.60;97466.50;7032474;28;20731;-76
2022/04/06 15:33:45;;;;;;;2.23;1.40;;;;;;;20.95;34.94;97478.69;7025782;28;20206;-76
2022/04/06 15:37:22;;;;;;;0.93;0.93;;;;;;;20.99;35.34;97476.97;7017918;28;20205;-76
2022/04/06 15:40:44;;;;;;;1.83;1.00;;;;;;;20.88;34.98;97472.78;7007208;28;20233;-77
2022/04/06 15:44:05;;;;;;;1.27;0.90;;;;;;;20.96;34.39;97472.91;7025650;28;20248;-76
2022/04/06 15:47:29;;;;;;;0.90;0.90;;;;;;;21.22;33.91;97451.31;7005778;28;20658;-77
2022/04/06 15:50:51;;;;;;;1.03;1.00;;;;;;;21.18;34.58;97465.59;7023066;28;20217;-78
2022/04/06 15:54:12;;;;;;;1.37;1.27;;;;;;;20.93;34.76;97451.59;7032101;28;20219;-77
2022/04/06 15:57:34;;;;;;;1.07;1.00;;;;;;;20.76;35.52;97443.13;7032615;28;20201;-79
2022/04/06 16:00:56;;;;;;;1.90;1.10;;;;;;;20.31;35.53;97427.53;7032341;28;20593;-77
2022/04/06 16:04:19;;;;;;;0.90;0.90;;;;;;;20.88;35.30;97459.91;7032139;28;20208;-77
2022/04/06 16:07:40;;;;;;;1.20;1.10;;;;;;;20.79;35.97;97461.69;7031121;28;20223;-77
2022/04/06 16:11:02;;;;;;;1.90;1.30;;;;;;;20.53;36.45;97459.72;7032616;28;20261;-78